sensor_id;sensor_type;location;lat;lon;timestamp;P1;durP1;ratioP1;P2;durP2;ratioP2
46675;SDS011;32412;51.478;5.694;2023-07-31T00:01:20;20.25;;;7.47;;
46675;SDS011;32412;51.478;5.694;2023-07-31T00:03:45;27.40;;;8.45;;
46675;SDS011;32412;51.478;5.694;2023-07-31T00:06:12;22.30;;;7.70;;
46675;SDS011;32412;51.478;5.694;2023-07-31T00:08:37;23.25;;;6.85;;
46675;SDS011;32412;51.478;5.694;2023-07-31T00:11:03;31.08;;;7.97;;
46675;SDS011;32412;51.478;5.694;2023-07-31T00:13:29;30.08;;;7.13;;
46675;SDS011;32412;51.478;5.694;2023-07-31T00:15:54;26.90;;;7.03;;
46675;SDS011;32412;51.478;5.694;2023-07-31T00:18:20;23.45;;;7.20;;
46675;SDS011;32412;51.478;5.694;2023-07-31T00:20:46;21.17;;;6.65;;
46675;SDS011;32412;51.478;5.694;2023-07-31T00:23:11;30.20;;;6.43;;
46675;SDS011;32412;51.478;5.694;2023-07-31T00:25:37;19.10;;;6.68;;
46675;SDS011;32412;51.478;5.694;2023-07-31T00:28:03;20.85;;;6.18;;
46675;SDS011;32412;51.478;5.694;2023-07-31T00:30:28;24.73;;;6.43;;
46675;SDS011;32412;51.478;5.694;2023-07-31T00:32:54;24.25;;;6.22;;
46675;SDS011;32412;51.478;5.694;2023-07-31T00:35:20;24.23;;;6.90;;
46675;SDS011;32412;51.478;5.694;2023-07-31T00:37:45;18.55;;;6.32;;
46675;SDS011;32412;51.478;5.694;2023-07-31T00:40:11;23.85;;;6.78;;
46675;SDS011;32412;51.478;5.694;2023-07-31T00:42:38;19.15;;;5.97;;
46675;SDS011;32412;51.478;5.694;2023-07-31T00:45:04;25.85;;;7.53;;
46675;SDS011;32412;51.478;5.694;2023-07-31T00:47:30;20.50;;;6.55;;
46675;SDS011;32412;51.478;5.694;2023-07-31T00:49:56;16.40;;;5.97;;
46675;SDS011;32412;51.478;5.694;2023-07-31T00:52:22;23.23;;;5.97;;
46675;SDS011;32412;51.478;5.694;2023-07-31T00:54:48;22.75;;;5.47;;
46675;SDS011;32412;51.478;5.694;2023-07-31T00:57:14;16.90;;;5.78;;
46675;SDS011;32412;51.478;5.694;2023-07-31T00:59:40;20.65;;;6.15;;
46675;SDS011;32412;51.478;5.694;2023-07-31T01:02:06;16.90;;;5.45;;
46675;SDS011;32412;51.478;5.694;2023-07-31T01:04:32;21.25;;;5.25;;
46675;SDS011;32412;51.478;5.694;2023-07-31T01:07:11;17.80;;;5.15;;
46675;SDS011;32412;51.478;5.694;2023-07-31T01:12:13;15.55;;;4.88;;
46675;SDS011;32412;51.478;5.694;2023-07-31T01:14:50;17.85;;;5.57;;
46675;SDS011;32412;51.478;5.694;2023-07-31T01:17:36;15.50;;;4.72;;
46675;SDS011;32412;51.478;5.694;2023-07-31T01:20:04;16.42;;;4.75;;
46675;SDS011;32412;51.478;5.694;2023-07-31T01:25:25;21.17;;;5.65;;
46675;SDS011;32412;51.478;5.694;2023-07-31T01:28:44;17.02;;;4.78;;
46675;SDS011;32412;51.478;5.694;2023-07-31T01:31:18;13.03;;;4.43;;
46675;SDS011;32412;51.478;5.694;2023-07-31T01:33:47;14.02;;;4.72;;
46675;SDS011;32412;51.478;5.694;2023-07-31T01:36:14;13.55;;;5.13;;
46675;SDS011;32412;51.478;5.694;2023-07-31T01:38:40;19.70;;;5.40;;
46675;SDS011;32412;51.478;5.694;2023-07-31T01:41:05;14.38;;;4.85;;
46675;SDS011;32412;51.478;5.694;2023-07-31T01:43:31;16.23;;;5.47;;
46675;SDS011;32412;51.478;5.694;2023-07-31T01:45:57;19.42;;;4.85;;
46675;SDS011;32412;51.478;5.694;2023-07-31T01:48:22;14.77;;;5.20;;
46675;SDS011;32412;51.478;5.694;2023-07-31T01:50:48;18.23;;;5.47;;
46675;SDS011;32412;51.478;5.694;2023-07-31T01:53:14;16.58;;;4.45;;
46675;SDS011;32412;51.478;5.694;2023-07-31T01:55:39;18.27;;;5.70;;
46675;SDS011;32412;51.478;5.694;2023-07-31T01:58:05;14.35;;;4.97;;
46675;SDS011;32412;51.478;5.694;2023-07-31T02:00:31;18.27;;;5.38;;
46675;SDS011;32412;51.478;5.694;2023-07-31T02:02:56;14.57;;;4.53;;
46675;SDS011;32412;51.478;5.694;2023-07-31T02:05:22;13.13;;;5.70;;
46675;SDS011;32412;51.478;5.694;2023-07-31T02:07:48;18.15;;;5.15;;
46675;SDS011;32412;51.478;5.694;2023-07-31T02:10:13;17.38;;;4.90;;
46675;SDS011;32412;51.478;5.694;2023-07-31T02:12:39;17.95;;;5.50;;
46675;SDS011;32412;51.478;5.694;2023-07-31T02:15:04;14.40;;;5.07;;
46675;SDS011;32412;51.478;5.694;2023-07-31T02:17:30;16.58;;;5.25;;
46675;SDS011;32412;51.478;5.694;2023-07-31T02:19:56;18.80;;;4.82;;
46675;SDS011;32412;51.478;5.694;2023-07-31T02:22:22;18.20;;;4.88;;
46675;SDS011;32412;51.478;5.694;2023-07-31T02:24:47;16.75;;;5.25;;
46675;SDS011;32412;51.478;5.694;2023-07-31T02:27:13;19.20;;;5.35;;
46675;SDS011;32412;51.478;5.694;2023-07-31T02:29:38;14.65;;;5.63;;
46675;SDS011;32412;51.478;5.694;2023-07-31T02:32:04;16.40;;;5.32;;
46675;SDS011;32412;51.478;5.694;2023-07-31T02:34:30;12.07;;;5.95;;
46675;SDS011;32412;51.478;5.694;2023-07-31T02:36:55;13.40;;;5.15;;
46675;SDS011;32412;51.478;5.694;2023-07-31T02:39:21;20.05;;;5.05;;
46675;SDS011;32412;51.478;5.694;2023-07-31T02:41:47;17.13;;;5.55;;
46675;SDS011;32412;51.478;5.694;2023-07-31T02:44:12;15.20;;;5.13;;
46675;SDS011;32412;51.478;5.694;2023-07-31T02:46:39;17.80;;;4.57;;
46675;SDS011;32412;51.478;5.694;2023-07-31T02:49:05;15.75;;;5.28;;
46675;SDS011;32412;51.478;5.694;2023-07-31T02:51:30;18.42;;;4.88;;
46675;SDS011;32412;51.478;5.694;2023-07-31T02:53:56;21.45;;;5.55;;
46675;SDS011;32412;51.478;5.694;2023-07-31T02:56:22;15.77;;;5.10;;
46675;SDS011;32412;51.478;5.694;2023-07-31T02:58:47;15.35;;;5.18;;
46675;SDS011;32412;51.478;5.694;2023-07-31T03:01:13;16.63;;;5.30;;
46675;SDS011;32412;51.478;5.694;2023-07-31T03:03:41;18.17;;;6.28;;
46675;SDS011;32412;51.478;5.694;2023-07-31T03:06:07;16.70;;;5.15;;
46675;SDS011;32412;51.478;5.694;2023-07-31T03:08:32;17.75;;;5.38;;
46675;SDS011;32412;51.478;5.694;2023-07-31T03:10:58;16.30;;;5.65;;
46675;SDS011;32412;51.478;5.694;2023-07-31T03:13:24;18.95;;;5.65;;
46675;SDS011;32412;51.478;5.694;2023-07-31T03:15:49;17.48;;;5.38;;
46675;SDS011;32412;51.478;5.694;2023-07-31T03:18:15;19.17;;;5.32;;
46675;SDS011;32412;51.478;5.694;2023-07-31T03:20:44;17.65;;;5.85;;
46675;SDS011;32412;51.478;5.694;2023-07-31T03:23:10;14.85;;;4.97;;
46675;SDS011;32412;51.478;5.694;2023-07-31T03:25:35;21.92;;;5.57;;
46675;SDS011;32412;51.478;5.694;2023-07-31T03:28:01;23.98;;;5.63;;
46675;SDS011;32412;51.478;5.694;2023-07-31T03:30:27;17.23;;;5.90;;
46675;SDS011;32412;51.478;5.694;2023-07-31T03:32:52;17.83;;;5.10;;
46675;SDS011;32412;51.478;5.694;2023-07-31T03:35:18;15.80;;;5.40;;
46675;SDS011;32412;51.478;5.694;2023-07-31T03:37:44;18.67;;;5.55;;
46675;SDS011;32412;51.478;5.694;2023-07-31T03:40:09;17.60;;;5.70;;
46675;SDS011;32412;51.478;5.694;2023-07-31T03:42:35;16.42;;;5.32;;
46675;SDS011;32412;51.478;5.694;2023-07-31T03:45:01;12.00;;;4.75;;
46675;SDS011;32412;51.478;5.694;2023-07-31T03:47:27;17.23;;;4.68;;
46675;SDS011;32412;51.478;5.694;2023-07-31T03:49:53;14.57;;;5.25;;
46675;SDS011;32412;51.478;5.694;2023-07-31T03:52:18;19.45;;;4.90;;
46675;SDS011;32412;51.478;5.694;2023-07-31T03:54:44;15.13;;;5.22;;
46675;SDS011;32412;51.478;5.694;2023-07-31T03:57:10;11.65;;;5.22;;
46675;SDS011;32412;51.478;5.694;2023-07-31T03:59:36;14.35;;;5.07;;
46675;SDS011;32412;51.478;5.694;2023-07-31T04:02:04;17.60;;;4.95;;
46675;SDS011;32412;51.478;5.694;2023-07-31T04:04:30;14.20;;;5.00;;
46675;SDS011;32412;51.478;5.694;2023-07-31T04:06:55;14.27;;;5.18;;
46675;SDS011;32412;51.478;5.694;2023-07-31T04:09:21;15.70;;;4.82;;
46675;SDS011;32412;51.478;5.694;2023-07-31T04:11:47;15.13;;;4.85;;
46675;SDS011;32412;51.478;5.694;2023-07-31T04:14:12;22.58;;;5.57;;
46675;SDS011;32412;51.478;5.694;2023-07-31T04:16:38;14.77;;;4.85;;
46675;SDS011;32412;51.478;5.694;2023-07-31T04:19:03;17.45;;;5.28;;
46675;SDS011;32412;51.478;5.694;2023-07-31T04:21:29;11.30;;;4.53;;
46675;SDS011;32412;51.478;5.694;2023-07-31T04:23:55;19.90;;;5.50;;
46675;SDS011;32412;51.478;5.694;2023-07-31T04:26:21;12.00;;;5.32;;
46675;SDS011;32412;51.478;5.694;2023-07-31T04:28:47;15.85;;;5.90;;
46675;SDS011;32412;51.478;5.694;2023-07-31T04:31:12;18.02;;;5.18;;
46675;SDS011;32412;51.478;5.694;2023-07-31T04:33:38;16.42;;;5.70;;
46675;SDS011;32412;51.478;5.694;2023-07-31T04:36:04;14.13;;;5.10;;
46675;SDS011;32412;51.478;5.694;2023-07-31T04:38:30;19.40;;;5.30;;
46675;SDS011;32412;51.478;5.694;2023-07-31T04:40:56;14.73;;;4.82;;
46675;SDS011;32412;51.478;5.694;2023-07-31T04:43:21;12.30;;;5.35;;
46675;SDS011;32412;51.478;5.694;2023-07-31T04:45:47;14.50;;;4.93;;
46675;SDS011;32412;51.478;5.694;2023-07-31T04:48:13;14.50;;;4.82;;
46675;SDS011;32412;51.478;5.694;2023-07-31T04:50:39;15.60;;;5.43;;
46675;SDS011;32412;51.478;5.694;2023-07-31T04:53:05;15.93;;;5.00;;
46675;SDS011;32412;51.478;5.694;2023-07-31T04:55:31;18.90;;;5.72;;
46675;SDS011;32412;51.478;5.694;2023-07-31T04:57:57;15.57;;;5.20;;
46675;SDS011;32412;51.478;5.694;2023-07-31T05:00:26;13.13;;;5.30;;
46675;SDS011;32412;51.478;5.694;2023-07-31T05:02:51;18.30;;;4.97;;
46675;SDS011;32412;51.478;5.694;2023-07-31T05:05:17;14.63;;;5.10;;
46675;SDS011;32412;51.478;5.694;2023-07-31T05:07:43;11.43;;;5.00;;
46675;SDS011;32412;51.478;5.694;2023-07-31T05:10:08;12.35;;;5.45;;
46675;SDS011;32412;51.478;5.694;2023-07-31T05:12:34;12.40;;;5.00;;
46675;SDS011;32412;51.478;5.694;2023-07-31T05:14:59;12.50;;;5.50;;
46675;SDS011;32412;51.478;5.694;2023-07-31T05:17:25;17.08;;;5.20;;
46675;SDS011;32412;51.478;5.694;2023-07-31T05:19:51;16.23;;;5.70;;
46675;SDS011;32412;51.478;5.694;2023-07-31T05:22:16;12.98;;;5.68;;
46675;SDS011;32412;51.478;5.694;2023-07-31T05:24:42;12.23;;;5.53;;
46675;SDS011;32412;51.478;5.694;2023-07-31T05:27:07;12.65;;;4.70;;
46675;SDS011;32412;51.478;5.694;2023-07-31T05:29:34;11.38;;;4.80;;
46675;SDS011;32412;51.478;5.694;2023-07-31T05:32:00;11.15;;;5.22;;
46675;SDS011;32412;51.478;5.694;2023-07-31T05:34:25;7.43;;;4.43;;
46675;SDS011;32412;51.478;5.694;2023-07-31T05:36:51;13.52;;;5.20;;
46675;SDS011;32412;51.478;5.694;2023-07-31T05:39:17;13.88;;;5.30;;
46675;SDS011;32412;51.478;5.694;2023-07-31T05:41:44;9.93;;;4.97;;
46675;SDS011;32412;51.478;5.694;2023-07-31T05:44:10;13.55;;;5.72;;
46675;SDS011;32412;51.478;5.694;2023-07-31T05:46:36;11.27;;;5.30;;
46675;SDS011;32412;51.478;5.694;2023-07-31T05:49:01;11.60;;;5.35;;
46675;SDS011;32412;51.478;5.694;2023-07-31T05:51:27;12.55;;;5.13;;
46675;SDS011;32412;51.478;5.694;2023-07-31T05:53:53;12.93;;;5.10;;
46675;SDS011;32412;51.478;5.694;2023-07-31T05:56:19;14.18;;;5.32;;
46675;SDS011;32412;51.478;5.694;2023-07-31T05:58:44;11.68;;;5.35;;
46675;SDS011;32412;51.478;5.694;2023-07-31T06:01:10;12.50;;;5.57;;
46675;SDS011;32412;51.478;5.694;2023-07-31T06:03:36;11.43;;;5.55;;
46675;SDS011;32412;51.478;5.694;2023-07-31T06:06:01;11.02;;;5.90;;
46675;SDS011;32412;51.478;5.694;2023-07-31T06:08:27;11.55;;;5.65;;
46675;SDS011;32412;51.478;5.694;2023-07-31T06:10:52;10.00;;;6.03;;
46675;SDS011;32412;51.478;5.694;2023-07-31T06:13:18;13.75;;;5.90;;
46675;SDS011;32412;51.478;5.694;2023-07-31T06:15:44;12.48;;;5.72;;
46675;SDS011;32412;51.478;5.694;2023-07-31T06:18:09;12.48;;;6.43;;
46675;SDS011;32412;51.478;5.694;2023-07-31T06:20:35;10.88;;;5.55;;
46675;SDS011;32412;51.478;5.694;2023-07-31T06:23:01;10.35;;;5.80;;
46675;SDS011;32412;51.478;5.694;2023-07-31T06:25:27;8.90;;;5.90;;
46675;SDS011;32412;51.478;5.694;2023-07-31T06:27:53;12.55;;;6.10;;
46675;SDS011;32412;51.478;5.694;2023-07-31T06:30:18;11.63;;;6.13;;
46675;SDS011;32412;51.478;5.694;2023-07-31T06:32:44;12.98;;;6.45;;
46675;SDS011;32412;51.478;5.694;2023-07-31T06:35:09;9.38;;;5.72;;
46675;SDS011;32412;51.478;5.694;2023-07-31T06:37:35;10.52;;;6.03;;
46675;SDS011;32412;51.478;5.694;2023-07-31T06:40:01;10.85;;;6.63;;
46675;SDS011;32412;51.478;5.694;2023-07-31T06:42:27;11.57;;;6.65;;
46675;SDS011;32412;51.478;5.694;2023-07-31T06:44:52;10.40;;;6.38;;
46675;SDS011;32412;51.478;5.694;2023-07-31T06:47:18;10.93;;;6.68;;
46675;SDS011;32412;51.478;5.694;2023-07-31T06:49:43;10.75;;;6.53;;
46675;SDS011;32412;51.478;5.694;2023-07-31T06:52:09;14.45;;;6.50;;
46675;SDS011;32412;51.478;5.694;2023-07-31T06:54:36;10.88;;;6.57;;
46675;SDS011;32412;51.478;5.694;2023-07-31T06:57:01;10.93;;;6.65;;
46675;SDS011;32412;51.478;5.694;2023-07-31T06:59:28;10.85;;;6.15;;
46675;SDS011;32412;51.478;5.694;2023-07-31T07:01:54;14.30;;;5.75;;
46675;SDS011;32412;51.478;5.694;2023-07-31T07:04:20;12.80;;;6.10;;
46675;SDS011;32412;51.478;5.694;2023-07-31T07:06:45;12.82;;;5.93;;
46675;SDS011;32412;51.478;5.694;2023-07-31T07:09:11;9.32;;;5.97;;
46675;SDS011;32412;51.478;5.694;2023-07-31T07:11:36;11.27;;;5.57;;
46675;SDS011;32412;51.478;5.694;2023-07-31T07:14:02;9.05;;;5.65;;
46675;SDS011;32412;51.478;5.694;2023-07-31T07:16:28;11.88;;;5.47;;
46675;SDS011;32412;51.478;5.694;2023-07-31T07:18:54;9.60;;;4.80;;
46675;SDS011;32412;51.478;5.694;2023-07-31T07:21:19;9.02;;;5.28;;
46675;SDS011;32412;51.478;5.694;2023-07-31T07:23:45;7.68;;;5.30;;
46675;SDS011;32412;51.478;5.694;2023-07-31T07:26:11;9.25;;;5.00;;
46675;SDS011;32412;51.478;5.694;2023-07-31T07:28:36;6.95;;;5.28;;
46675;SDS011;32412;51.478;5.694;2023-07-31T07:31:02;9.73;;;5.72;;
46675;SDS011;32412;51.478;5.694;2023-07-31T07:33:28;8.70;;;4.93;;
46675;SDS011;32412;51.478;5.694;2023-07-31T07:35:54;9.75;;;5.20;;
46675;SDS011;32412;51.478;5.694;2023-07-31T07:38:19;7.72;;;4.85;;
46675;SDS011;32412;51.478;5.694;2023-07-31T07:40:45;6.30;;;4.60;;
46675;SDS011;32412;51.478;5.694;2023-07-31T07:43:15;8.80;;;5.03;;
46675;SDS011;32412;51.478;5.694;2023-07-31T07:45:41;7.22;;;5.07;;
46675;SDS011;32412;51.478;5.694;2023-07-31T07:48:07;7.82;;;4.75;;
46675;SDS011;32412;51.478;5.694;2023-07-31T07:50:32;6.05;;;4.60;;
46675;SDS011;32412;51.478;5.694;2023-07-31T07:52:58;5.07;;;3.97;;
46675;SDS011;32412;51.478;5.694;2023-07-31T07:55:24;9.35;;;4.40;;
46675;SDS011;32412;51.478;5.694;2023-07-31T07:57:49;9.65;;;5.00;;
46675;SDS011;32412;51.478;5.694;2023-07-31T08:00:15;9.77;;;5.43;;
46675;SDS011;32412;51.478;5.694;2023-07-31T08:02:42;9.00;;;5.53;;
46675;SDS011;32412;51.478;5.694;2023-07-31T08:05:08;7.53;;;5.53;;
46675;SDS011;32412;51.478;5.694;2023-07-31T08:07:34;11.90;;;6.47;;
46675;SDS011;32412;51.478;5.694;2023-07-31T08:09:59;7.68;;;5.93;;
46675;SDS011;32412;51.478;5.694;2023-07-31T08:12:25;11.02;;;7.18;;
46675;SDS011;32412;51.478;5.694;2023-07-31T08:14:51;10.30;;;6.38;;
46675;SDS011;32412;51.478;5.694;2023-07-31T08:17:17;11.07;;;6.22;;
46675;SDS011;32412;51.478;5.694;2023-07-31T08:19:42;13.98;;;6.97;;
46675;SDS011;32412;51.478;5.694;2023-07-31T08:22:09;9.93;;;7.03;;
46675;SDS011;32412;51.478;5.694;2023-07-31T08:24:34;11.57;;;6.10;;
46675;SDS011;32412;51.478;5.694;2023-07-31T08:27:00;10.68;;;6.25;;
46675;SDS011;32412;51.478;5.694;2023-07-31T08:29:26;10.07;;;6.22;;
46675;SDS011;32412;51.478;5.694;2023-07-31T08:31:51;9.77;;;6.38;;
46675;SDS011;32412;51.478;5.694;2023-07-31T08:34:17;8.65;;;6.15;;
46675;SDS011;32412;51.478;5.694;2023-07-31T08:36:42;9.30;;;6.03;;
46675;SDS011;32412;51.478;5.694;2023-07-31T08:39:08;9.23;;;5.82;;
46675;SDS011;32412;51.478;5.694;2023-07-31T08:41:37;9.93;;;5.78;;
46675;SDS011;32412;51.478;5.694;2023-07-31T08:44:08;10.15;;;5.85;;
46675;SDS011;32412;51.478;5.694;2023-07-31T08:46:36;10.80;;;5.85;;
46675;SDS011;32412;51.478;5.694;2023-07-31T08:49:06;9.35;;;5.82;;
46675;SDS011;32412;51.478;5.694;2023-07-31T08:51:36;11.02;;;5.63;;
46675;SDS011;32412;51.478;5.694;2023-07-31T08:54:01;9.10;;;5.50;;
46675;SDS011;32412;51.478;5.694;2023-07-31T08:56:29;8.65;;;5.57;;
46675;SDS011;32412;51.478;5.694;2023-07-31T08:58:56;9.82;;;5.05;;
46675;SDS011;32412;51.478;5.694;2023-07-31T09:01:23;9.95;;;5.43;;
46675;SDS011;32412;51.478;5.694;2023-07-31T09:03:49;8.27;;;5.90;;
46675;SDS011;32412;51.478;5.694;2023-07-31T09:06:17;10.05;;;6.32;;
46675;SDS011;32412;51.478;5.694;2023-07-31T09:08:45;12.18;;;6.70;;
46675;SDS011;32412;51.478;5.694;2023-07-31T09:11:11;12.02;;;6.20;;
46675;SDS011;32412;51.478;5.694;2023-07-31T09:13:37;10.27;;;6.00;;
46675;SDS011;32412;51.478;5.694;2023-07-31T09:16:05;10.00;;;6.32;;
46675;SDS011;32412;51.478;5.694;2023-07-31T09:18:30;16.83;;;6.85;;
46675;SDS011;32412;51.478;5.694;2023-07-31T09:21:05;11.63;;;6.47;;
46675;SDS011;32412;51.478;5.694;2023-07-31T09:23:44;10.57;;;6.00;;
46675;SDS011;32412;51.478;5.694;2023-07-31T09:26:11;13.07;;;6.25;;
46675;SDS011;32412;51.478;5.694;2023-07-31T09:28:53;10.25;;;5.47;;
46675;SDS011;32412;51.478;5.694;2023-07-31T09:31:31;11.77;;;5.55;;
46675;SDS011;32412;51.478;5.694;2023-07-31T09:34:07;11.00;;;5.97;;
46675;SDS011;32412;51.478;5.694;2023-07-31T09:36:34;7.88;;;5.03;;
46675;SDS011;32412;51.478;5.694;2023-07-31T09:39:05;8.68;;;5.10;;
46675;SDS011;32412;51.478;5.694;2023-07-31T09:41:38;10.73;;;5.45;;
46675;SDS011;32412;51.478;5.694;2023-07-31T09:44:08;10.02;;;4.95;;
46675;SDS011;32412;51.478;5.694;2023-07-31T09:46:34;8.85;;;4.82;;
46675;SDS011;32412;51.478;5.694;2023-07-31T09:51:34;8.18;;;4.72;;
46675;SDS011;32412;51.478;5.694;2023-07-31T09:54:04;8.90;;;4.93;;
46675;SDS011;32412;51.478;5.694;2023-07-31T09:56:48;8.50;;;4.80;;
46675;SDS011;32412;51.478;5.694;2023-07-31T09:59:15;6.82;;;4.43;;
46675;SDS011;32412;51.478;5.694;2023-07-31T10:01:42;7.60;;;4.72;;
46675;SDS011;32412;51.478;5.694;2023-07-31T10:04:09;8.43;;;4.55;;
46675;SDS011;32412;51.478;5.694;2023-07-31T10:06:36;11.52;;;4.70;;
46675;SDS011;32412;51.478;5.694;2023-07-31T10:09:05;8.32;;;4.75;;
46675;SDS011;32412;51.478;5.694;2023-07-31T10:11:41;11.95;;;4.40;;
46675;SDS011;32412;51.478;5.694;2023-07-31T10:14:16;8.77;;;4.33;;
46675;SDS011;32412;51.478;5.694;2023-07-31T10:16:46;6.13;;;3.90;;
46675;SDS011;32412;51.478;5.694;2023-07-31T10:19:12;8.57;;;4.13;;
46675;SDS011;32412;51.478;5.694;2023-07-31T10:21:38;9.05;;;4.32;;
46675;SDS011;32412;51.478;5.694;2023-07-31T10:24:04;6.82;;;4.57;;
46675;SDS011;32412;51.478;5.694;2023-07-31T10:26:31;7.60;;;4.53;;
46675;SDS011;32412;51.478;5.694;2023-07-31T10:29:00;7.07;;;3.90;;
46675;SDS011;32412;51.478;5.694;2023-07-31T10:31:26;6.57;;;3.63;;
46675;SDS011;32412;51.478;5.694;2023-07-31T10:33:53;11.35;;;4.07;;
46675;SDS011;32412;51.478;5.694;2023-07-31T10:36:21;7.45;;;3.92;;
46675;SDS011;32412;51.478;5.694;2023-07-31T10:38:49;7.35;;;3.53;;
46675;SDS011;32412;51.478;5.694;2023-07-31T10:41:18;8.77;;;4.05;;
46675;SDS011;32412;51.478;5.694;2023-07-31T10:43:45;6.68;;;3.65;;
46675;SDS011;32412;51.478;5.694;2023-07-31T10:46:12;6.97;;;3.50;;
46675;SDS011;32412;51.478;5.694;2023-07-31T10:48:39;7.50;;;4.03;;
46675;SDS011;32412;51.478;5.694;2023-07-31T10:51:12;9.43;;;3.70;;
46675;SDS011;32412;51.478;5.694;2023-07-31T10:53:39;11.13;;;4.50;;
46675;SDS011;32412;51.478;5.694;2023-07-31T10:56:09;5.82;;;3.47;;
46675;SDS011;32412;51.478;5.694;2023-07-31T10:58:40;6.75;;;4.00;;
46675;SDS011;32412;51.478;5.694;2023-07-31T11:01:09;9.82;;;4.10;;
46675;SDS011;32412;51.478;5.694;2023-07-31T11:03:48;7.03;;;3.40;;
46675;SDS011;32412;51.478;5.694;2023-07-31T11:06:16;6.68;;;3.40;;
46675;SDS011;32412;51.478;5.694;2023-07-31T11:08:43;7.55;;;3.97;;
46675;SDS011;32412;51.478;5.694;2023-07-31T11:11:10;7.10;;;3.08;;
46675;SDS011;32412;51.478;5.694;2023-07-31T11:16:17;4.65;;;3.40;;
46675;SDS011;32412;51.478;5.694;2023-07-31T11:18:44;8.15;;;4.03;;
46675;SDS011;32412;51.478;5.694;2023-07-31T11:21:13;5.10;;;3.05;;
46675;SDS011;32412;51.478;5.694;2023-07-31T11:23:39;7.00;;;3.22;;
46675;SDS011;32412;51.478;5.694;2023-07-31T11:26:06;6.78;;;3.58;;
46675;SDS011;32412;51.478;5.694;2023-07-31T11:28:33;9.32;;;3.15;;
46675;SDS011;32412;51.478;5.694;2023-07-31T11:30:59;5.18;;;3.15;;
46675;SDS011;32412;51.478;5.694;2023-07-31T11:33:26;6.55;;;3.80;;
46675;SDS011;32412;51.478;5.694;2023-07-31T11:35:52;6.57;;;3.53;;
46675;SDS011;32412;51.478;5.694;2023-07-31T11:38:24;5.75;;;3.38;;
46675;SDS011;32412;51.478;5.694;2023-07-31T11:40:52;5.05;;;3.15;;
46675;SDS011;32412;51.478;5.694;2023-07-31T11:43:21;6.50;;;3.53;;
46675;SDS011;32412;51.478;5.694;2023-07-31T11:45:49;5.63;;;3.13;;
46675;SDS011;32412;51.478;5.694;2023-07-31T11:48:23;6.22;;;2.83;;
46675;SDS011;32412;51.478;5.694;2023-07-31T11:50:59;4.78;;;3.25;;
46675;SDS011;32412;51.478;5.694;2023-07-31T11:53:28;6.03;;;2.83;;
46675;SDS011;32412;51.478;5.694;2023-07-31T11:56:16;3.88;;;2.58;;
46675;SDS011;32412;51.478;5.694;2023-07-31T11:58:43;5.30;;;2.60;;
46675;SDS011;32412;51.478;5.694;2023-07-31T12:01:11;5.18;;;2.83;;
46675;SDS011;32412;51.478;5.694;2023-07-31T12:03:39;3.92;;;2.70;;
46675;SDS011;32412;51.478;5.694;2023-07-31T12:06:05;4.90;;;3.05;;
46675;SDS011;32412;51.478;5.694;2023-07-31T12:08:32;6.82;;;3.03;;
46675;SDS011;32412;51.478;5.694;2023-07-31T12:11:02;5.97;;;3.30;;
46675;SDS011;32412;51.478;5.694;2023-07-31T12:13:28;5.28;;;2.85;;
46675;SDS011;32412;51.478;5.694;2023-07-31T12:15:57;6.50;;;3.10;;
46675;SDS011;32412;51.478;5.694;2023-07-31T12:18:24;5.10;;;3.10;;
46675;SDS011;32412;51.478;5.694;2023-07-31T12:23:22;6.22;;;3.25;;
46675;SDS011;32412;51.478;5.694;2023-07-31T12:25:59;4.45;;;3.10;;
46675;SDS011;32412;51.478;5.694;2023-07-31T12:28:26;4.57;;;3.37;;
46675;SDS011;32412;51.478;5.694;2023-07-31T12:30:52;8.00;;;4.18;;
46675;SDS011;32412;51.478;5.694;2023-07-31T12:33:35;6.18;;;3.65;;
46675;SDS011;32412;51.478;5.694;2023-07-31T12:36:02;6.10;;;3.40;;
46675;SDS011;32412;51.478;5.694;2023-07-31T12:38:30;7.28;;;3.58;;
46675;SDS011;32412;51.478;5.694;2023-07-31T12:40:56;6.13;;;3.33;;
46675;SDS011;32412;51.478;5.694;2023-07-31T12:43:21;7.20;;;3.80;;
46675;SDS011;32412;51.478;5.694;2023-07-31T12:45:47;4.57;;;3.60;;
46675;SDS011;32412;51.478;5.694;2023-07-31T12:48:13;5.95;;;3.67;;
46675;SDS011;32412;51.478;5.694;2023-07-31T12:50:38;5.38;;;3.65;;
46675;SDS011;32412;51.478;5.694;2023-07-31T12:53:04;7.65;;;4.03;;
46675;SDS011;32412;51.478;5.694;2023-07-31T12:55:30;7.30;;;4.63;;
46675;SDS011;32412;51.478;5.694;2023-07-31T12:57:57;8.82;;;4.85;;
46675;SDS011;32412;51.478;5.694;2023-07-31T13:00:23;8.52;;;4.53;;
46675;SDS011;32412;51.478;5.694;2023-07-31T13:02:49;7.28;;;4.10;;
46675;SDS011;32412;51.478;5.694;2023-07-31T13:05:17;12.55;;;4.35;;
46675;SDS011;32412;51.478;5.694;2023-07-31T13:07:45;6.55;;;4.30;;
46675;SDS011;32412;51.478;5.694;2023-07-31T13:10:11;7.35;;;3.95;;
46675;SDS011;32412;51.478;5.694;2023-07-31T13:12:37;8.45;;;4.43;;
46675;SDS011;32412;51.478;5.694;2023-07-31T13:15:03;8.15;;;4.03;;
46675;SDS011;32412;51.478;5.694;2023-07-31T13:17:30;8.00;;;4.60;;
46675;SDS011;32412;51.478;5.694;2023-07-31T13:19:56;9.95;;;4.72;;
46675;SDS011;32412;51.478;5.694;2023-07-31T13:22:22;9.07;;;4.78;;
46675;SDS011;32412;51.478;5.694;2023-07-31T13:24:48;7.70;;;4.40;;
46675;SDS011;32412;51.478;5.694;2023-07-31T13:27:13;7.68;;;4.63;;
46675;SDS011;32412;51.478;5.694;2023-07-31T13:29:43;7.82;;;4.20;;
46675;SDS011;32412;51.478;5.694;2023-07-31T13:32:09;5.80;;;3.92;;
46675;SDS011;32412;51.478;5.694;2023-07-31T13:34:35;8.18;;;3.80;;
46675;SDS011;32412;51.478;5.694;2023-07-31T13:37:00;8.50;;;4.15;;
46675;SDS011;32412;51.478;5.694;2023-07-31T13:39:26;10.15;;;4.75;;
46675;SDS011;32412;51.478;5.694;2023-07-31T13:41:52;11.57;;;4.30;;
46675;SDS011;32412;51.478;5.694;2023-07-31T13:44:17;8.00;;;3.67;;
46675;SDS011;32412;51.478;5.694;2023-07-31T13:46:43;8.35;;;4.30;;
46675;SDS011;32412;51.478;5.694;2023-07-31T13:49:09;7.72;;;4.47;;
46675;SDS011;32412;51.478;5.694;2023-07-31T13:51:34;7.75;;;4.22;;
46675;SDS011;32412;51.478;5.694;2023-07-31T13:54:01;8.27;;;4.15;;
46675;SDS011;32412;51.478;5.694;2023-07-31T13:56:26;7.18;;;4.15;;
46675;SDS011;32412;51.478;5.694;2023-07-31T13:58:52;6.75;;;4.20;;
46675;SDS011;32412;51.478;5.694;2023-07-31T14:01:18;8.27;;;4.47;;
46675;SDS011;32412;51.478;5.694;2023-07-31T14:03:43;10.60;;;4.82;;
46675;SDS011;32412;51.478;5.694;2023-07-31T14:06:09;12.27;;;5.00;;
46675;SDS011;32412;51.478;5.694;2023-07-31T14:08:35;8.45;;;4.80;;
46675;SDS011;32412;51.478;5.694;2023-07-31T14:11:00;10.35;;;5.18;;
46675;SDS011;32412;51.478;5.694;2023-07-31T14:13:26;11.13;;;6.35;;
46675;SDS011;32412;51.478;5.694;2023-07-31T14:15:51;11.68;;;6.22;;
46675;SDS011;32412;51.478;5.694;2023-07-31T14:18:18;11.45;;;6.68;;
46675;SDS011;32412;51.478;5.694;2023-07-31T14:20:44;15.48;;;6.95;;
46675;SDS011;32412;51.478;5.694;2023-07-31T14:23:09;15.45;;;7.63;;
46675;SDS011;32412;51.478;5.694;2023-07-31T14:25:35;14.48;;;6.65;;
46675;SDS011;32412;51.478;5.694;2023-07-31T14:28:01;16.08;;;7.15;;
46675;SDS011;32412;51.478;5.694;2023-07-31T14:30:26;16.30;;;6.65;;
46675;SDS011;32412;51.478;5.694;2023-07-31T14:32:52;15.02;;;6.63;;
46675;SDS011;32412;51.478;5.694;2023-07-31T14:35:17;11.57;;;6.47;;
46675;SDS011;32412;51.478;5.694;2023-07-31T14:37:44;12.07;;;6.18;;
46675;SDS011;32412;51.478;5.694;2023-07-31T14:40:10;13.30;;;6.32;;
46675;SDS011;32412;51.478;5.694;2023-07-31T14:42:38;12.10;;;6.10;;
46675;SDS011;32412;51.478;5.694;2023-07-31T14:45:04;15.32;;;7.25;;
46675;SDS011;32412;51.478;5.694;2023-07-31T14:47:31;13.63;;;6.70;;
46675;SDS011;32412;51.478;5.694;2023-07-31T14:49:57;15.65;;;6.78;;
46675;SDS011;32412;51.478;5.694;2023-07-31T14:52:26;13.48;;;6.75;;